Time;durP1;ratioP1;P1;durP2;ratioP2;P2;SDS_P1;SDS_P2;PMS_P1;PMS_P2;Temp;Humidity;BMP_temperature;BMP_pressure;BME280_temperature;BME280_humidity;BME280_pressure;Samples;Min_cycle;Max_cycle;Signal;HPM_P1;HPM_P2
2023/03/05 00:00:07;;;;;;;0.00;0.00;;;;;;;1.95;100.00;99854.94;6211369;23;20005;-85
2023/03/05 00:02:39;;;;;;;0.52;0.52;;;;;;;1.91;100.00;99865.06;6210147;23;20017;-85
2023/03/05 00:05:04;;;;;;;0.25;0.25;;;;;;;1.84;100.00;99841.22;6194455;23;20080;-85
2023/03/05 00:07:30;;;;;;;1.63;0.60;;;;;;;1.87;100.00;99860.38;6181233;23;20013;-86
2023/03/05 00:09:58;;;;;;;1.35;1.25;;;;;;;1.83;100.00;99843.16;6182580;23;20440;-85
2023/03/05 00:12:24;;;;;;;0.15;0.15;;;;;;;1.85;100.00;99840.06;6154140;23;20339;-85
2023/03/05 00:14:49;;;;;;;2.38;0.57;;;;;;;1.78;100.00;99851.72;6181428;23;20009;-85
2023/03/05 00:17:15;;;;;;;0.55;0.52;;;;;;;1.83;100.00;99861.50;6180404;23;20434;-85
2023/03/05 00:19:41;;;;;;;3.80;0.65;;;;;;;1.83;100.00;99853.31;6181610;23;20043;-85
2023/03/05 00:22:06;;;;;;;0.88;0.88;;;;;;;1.77;100.00;99831.03;6180490;23;20009;-90
2023/03/05 00:24:32;;;;;;;0.52;0.52;;;;;;;1.82;100.00;99846.28;6181544;23;20016;-91
2023/03/05 00:26:57;;;;;;;0.17;0.17;;;;;;;1.76;100.00;99839.59;6130407;23;20427;-91
2023/03/05 00:29:23;;;;;;;0.55;0.55;;;;;;;1.67;100.00;99826.28;6181202;23;20080;-91
2023/03/05 00:31:49;;;;;;;0.40;0.40;;;;;;;1.70;100.00;99835.69;6180492;23;20005;-92
2023/03/05 00:34:16;;;;;;;1.02;0.82;;;;;;;1.69;100.00;99821.22;6130146;23;20079;-90
2023/03/05 00:36:47;;;;;;;9.30;0.52;;;;;;;1.67;100.00;99831.75;6154840;23;20017;-90
2023/03/05 00:39:13;;;;;;;0.10;0.10;;;;;;;1.74;100.00;99848.19;6155669;23;20009;-92
2023/03/05 00:41:38;;;;;;;3.42;1.00;;;;;;;1.66;100.00;99837.59;6154473;23;20027;-91
2023/03/05 00:44:04;;;;;;;0.93;0.40;;;;;;;1.66;100.00;99837.59;6154718;23;20498;-91
2023/03/05 00:46:30;;;;;;;0.40;0.40;;;;;;;1.68;100.00;99838.00;6154311;23;20708;-90
2023/03/05 00:48:56;;;;;;;3.53;0.73;;;;;;;1.63;100.00;99832.88;6130066;23;20021;-85
2023/03/05 00:51:21;;;;;;;1.40;1.30;;;;;;;1.58;100.00;99838.72;6128984;23;20363;-85
2023/03/05 00:53:48;;;;;;;0.45;0.45;;;;;;;1.61;100.00;99846.94;6129987;23;20151;-85
2023/03/05 00:56:13;;;;;;;0.30;0.30;;;;;;;1.54;100.00;99821.53;6153771;23;20464;-86
2023/03/05 00:58:39;;;;;;;2.67;0.98;;;;;;;1.59;100.00;99829.34;6154455;23;20009;-86
2023/03/05 01:01:05;;;;;;;0.52;0.52;;;;;;;1.60;100.00;99828.97;6153371;23;20005;-85
2023/03/05 01:03:31;;;;;;;0.47;0.47;;;;;;;1.60;100.00;99834.44;6154088;23;20342;-86
2023/03/05 01:05:57;;;;;;;0.45;0.43;;;;;;;1.63;100.00;99820.00;6180933;23;20027;-85
2023/03/05 01:08:23;;;;;;;1.50;1.40;;;;;;;1.63;100.00;99825.47;6184383;23;20016;-85
2023/03/05 01:10:49;;;;;;;0.00;0.00;;;;;;;1.60;100.00;99818.03;6182686;23;20005;-85
2023/03/05 01:13:15;;;;;;;0.82;0.80;;;;;;;1.67;100.00;99823.53;6184202;23;20020;-85
2023/03/05 01:15:40;;;;;;;0.08;0.08;;;;;;;1.60;100.00;99817.25;6183976;23;20431;-86
2023/03/05 01:18:06;;;;;;;0.55;0.55;;;;;;;1.63;100.00;99814.53;6159532;23;20431;-85
2023/03/05 01:20:33;;;;;;;5.82;2.15;;;;;;;1.68;100.00;99830.59;6210729;23;20040;-85
2023/03/05 01:23:00;;;;;;;0.10;0.10;;;;;;;1.65;100.00;99834.09;6159069;23;20013;-85
2023/03/05 01:25:26;;;;;;;1.45;0.98;;;;;;;1.64;100.00;99813.38;6211119;23;20009;-85
2023/03/05 01:27:51;;;;;;;0.68;0.55;;;;;;;1.65;100.00;99827.84;6159545;23;20100;-85
2023/03/05 01:30:17;;;;;;;1.42;1.33;;;;;;;1.64;100.00;99815.31;6184276;23;20450;-85
2023/03/05 01:32:43;;;;;;;0.45;0.45;;;;;;;1.62;100.00;99821.16;6158492;23;20013;-85
2023/03/05 01:35:15;;;;;;;0.82;0.82;;;;;;;1.59;100.00;99816.47;6184123;23;20424;-90
2023/03/05 01:37:41;;;;;;;0.28;0.22;;;;;;;1.62;100.00;99823.13;6158421;23;20028;-90
2023/03/05 01:40:07;;;;;;;0.65;0.65;;;;;;;1.60;100.00;99818.03;6210504;23;20005;-91
2023/03/05 01:42:33;;;;;;;0.55;0.50;;;;;;;1.59;100.00;99829.34;6183584;23;20017;-90
2023/03/05 01:45:17;;;;;;;0.68;0.68;;;;;;;1.52;100.00;99810.97;6184356;23;20035;-92
2023/03/05 01:47:43;;;;;;;0.63;0.63;;;;;;;1.54;100.00;99825.00;6183561;23;20051;-85
2023/03/05 01:50:20;;;;;;;0.10;0.10;;;;;;;1.61;100.00;99827.81;6159108;23;20091;-85
2023/03/05 01:52:51;;;;;;;1.33;1.23;;;;;;;1.60;100.00;99828.19;6183672;23;20012;-86
2023/03/05 01:55:20;;;;;;;1.00;1.00;;;;;;;1.53;100.00;99809.00;6183144;23;20316;-86
2023/03/05 01:57:58;;;;;;;0.22;0.22;;;;;;;1.61;100.00;99818.81;6183864;23;20107;-85
2023/03/05 02:00:46;;;;;;;0.00;0.00;;;;;;;1.59;100.00;99826.59;6158146;23;20398;-85
2023/03/05 02:03:12;;;;;;;0.00;0.00;;;;;;;1.52;100.00;99810.16;6153886;23;20025;-85
2023/03/05 02:05:40;;;;;;;0.28;0.28;;;;;;;1.62;100.00;99809.47;6183010;23;20091;-85
2023/03/05 02:08:10;;;;;;;1.50;0.98;;;;;;;1.62;100.00;99809.47;6183764;23;20020;-86
2023/03/05 02:10:38;;;;;;;0.63;0.63;;;;;;;1.58;100.00;99795.75;6159294;23;20012;-85
2023/03/05 02:13:16;;;;;;;0.13;0.13;;;;;;;1.62;100.00;99804.75;6158593;23;20036;-85
2023/03/05 02:15:42;;;;;;;0.10;0.10;;;;;;;1.64;100.00;99802.44;6184461;23;20021;-85
2023/03/05 02:18:09;;;;;;;0.68;0.68;;;;;;;1.67;100.00;99807.13;6160947;23;20005;-85
2023/03/05 02:20:56;;;;;;;0.88;0.35;;;;;;;1.76;99.50;99810.31;6185374;23;20088;-86
2023/03/05 02:23:37;;;;;;;0.20;0.20;;;;;;;1.86;97.69;99815.03;6185965;23;20431;-85
2023/03/05 02:26:08;;;;;;;0.85;0.85;;;;;;;1.92;97.36;99811.94;6212680;23;20039;-86
2023/03/05 02:28:39;;;;;;;1.30;0.52;;;;;;;1.91;97.19;99810.38;6212183;23;20017;-85
2023/03/05 02:31:13;;;;;;;0.25;0.25;;;;;;;1.88;97.31;99807.25;6185256;23;20013;-85
2023/03/05 02:33:39;;;;;;;0.00;0.00;;;;;;;1.91;97.81;99815.84;6185690;23;20091;-85
2023/03/05 02:36:05;;;;;;;0.00;0.00;;;;;;;1.83;97.67;99793.13;6184962;23;20316;-85
2023/03/05 02:38:31;;;;;;;2.03;1.10;;;;;;;1.86;97.95;99801.34;6186114;23;20013;-85
2023/03/05 02:40:56;;;;;;;0.13;0.13;;;;;;;1.88;97.59;99801.78;6211910;23;20663;-85
2023/03/05 02:43:22;;;;;;;0.57;0.57;;;;;;;1.93;98.01;99810.78;6184637;23;20012;-85
2023/03/05 02:45:47;;;;;;;0.03;0.03;;;;;;;1.89;98.42;99808.03;6210991;23;20005;-85
2023/03/05 02:48:13;;;;;;;0.28;0.28;;;;;;;1.86;98.24;99809.56;6211788;23;20012;-86
2023/03/05 02:50:40;;;;;;;0.00;0.00;;;;;;;1.79;98.17;99804.06;6185598;23;20085;-91
2023/03/05 02:53:06;;;;;;;0.00;0.00;;;;;;;1.90;97.57;99814.28;6160190;23;20095;-91
2023/03/05 02:55:32;;;;;;;0.00;0.00;;;;;;;1.90;98.13;99811.56;6185846;23;20039;-91
2023/03/05 02:57:58;;;;;;;0.52;0.52;;;;;;;1.86;98.13;99809.56;6185407;23;20008;-90
2023/03/05 03:00:25;;;;;;;0.38;0.38;;;;;;;1.84;98.15;99808.38;6184939;23;20071;-90
2023/03/05 03:02:51;;;;;;;0.20;0.20;;;;;;;1.84;98.35;99814.66;6159665;23;20623;-85
2023/03/05 03:05:16;;;;;;;1.27;0.57;;;;;;;1.83;98.78;99809.56;6184926;23;20021;-85
2023/03/05 03:07:42;;;;;;;0.40;0.40;;;;;;;1.73;99.09;99793.88;6212114;23;20020;-85
2023/03/05 03:10:08;;;;;;;0.55;0.55;;;;;;;1.68;99.82;99800.50;6185201;23;20339;-85
2023/03/05 03:12:38;;;;;;;0.00;0.00;;;;;;;1.70;99.51;99798.16;6185002;23;20020;-85
2023/03/05 03:15:05;;;;;;;1.92;1.25;;;;;;;1.68;99.52;99792.31;6184468;23;20613;-85
2023/03/05 03:17:34;;;;;;;0.10;0.10;;;;;;;1.69;99.51;99793.88;6159853;23;20347;-85
2023/03/05 03:20:00;;;;;;;0.00;0.00;;;;;;;1.68;99.37;99797.78;6160721;23;20051;-90
2023/03/05 03:22:25;;;;;;;0.20;0.20;;;;;;;1.57;99.71;99787.94;6184772;23;20004;-90
2023/03/05 03:24:51;;;;;;;0.13;0.08;;;;;;;1.63;99.67;99792.66;6212404;23;20428;-91
2023/03/05 03:27:16;;;;;;;0.22;0.22;;;;;;;1.58;100.00;99790.28;6210998;23;20019;-91
2023/03/05 03:29:42;;;;;;;0.00;0.00;;;;;;;1.57;100.00;99794.19;6212028;23;20009;-91
2023/03/05 03:32:07;;;;;;;0.17;0.17;;;;;;;1.61;100.00;99800.47;6210729;23;20020;-86
2023/03/05 03:34:33;;;;;;;0.20;0.20;;;;;;;1.49;100.00;99792.59;6185354;23;20007;-85
2023/03/05 03:36:58;;;;;;;1.17;1.08;;;;;;;1.47;100.00;99781.25;6184870;23;20486;-86
2023/03/05 03:39:24;;;;;;;0.55;0.55;;;;;;;1.53;100.00;99798.88;6184695;23;20021;-85
2023/03/05 03:41:51;;;;;;;1.40;0.32;;;;;;;1.51;100.00;99792.97;6211535;23;20012;-85
2023/03/05 03:44:17;;;;;;;0.05;0.05;;;;;;;1.49;100.00;99800.78;6211587;23;20009;-85
2023/03/05 03:46:45;;;;;;;0.52;0.52;;;;;;;1.46;100.00;99807.00;6184507;23;20000;-85
2023/03/05 03:49:30;;;;;;;0.08;0.08;;;;;;;1.46;100.00;99807.00;6160415;23;20019;-91
2023/03/05 03:51:57;;;;;;;0.88;0.88;;;;;;;1.46;100.00;99800.78;6210150;23;20076;-90
2023/03/05 03:54:22;;;;;;;0.20;0.20;;;;;;;1.42;100.00;99800.72;6211590;23;20023;-91
2023/03/05 03:56:48;;;;;;;0.28;0.28;;;;;;;1.34;100.00;99801.84;6184538;23;20095;-91
2023/03/05 03:59:13;;;;;;;0.10;0.10;;;;;;;1.33;100.00;99801.09;6182798;23;20004;-91
2023/03/05 04:01:43;;;;;;;0.22;0.22;;;;;;;1.26;100.00;99798.28;6210418;23;20494;-90
2023/03/05 04:04:09;;;;;;;0.30;0.30;;;;;;;1.21;100.00;99793.19;6155473;23;20469;-90
2023/03/05 04:06:35;;;;;;;0.00;0.00;;;;;;;1.22;100.00;99799.44;6155507;23;20020;-90
2023/03/05 04:09:03;;;;;;;0.22;0.22;;;;;;;1.17;100.00;99803.31;6181643;23;20013;-91
2023/03/05 04:11:28;;;;;;;0.10;0.10;;;;;;;1.08;100.00;99796.59;6106113;23;20088;-90
2023/03/05 04:13:54;;;;;;;0.28;0.28;;;;;;;1.12;100.00;99802.88;6155248;23;20051;-90
2023/03/05 04:16:20;;;;;;;0.00;0.00;;;;;;;1.08;100.00;99808.31;6130097;23;20132;-92
2023/03/05 04:18:46;;;;;;;0.38;0.30;;;;;;;1.01;100.00;99791.09;6130887;23;20017;-90
2023/03/05 04:21:12;;;;;;;0.60;0.60;;;;;;;1.04;100.00;99817.66;6180594;23;20005;-92
2023/03/05 04:23:38;;;;;;;0.00;0.00;;;;;;;0.97;100.00;99823.06;6155353;23;20016;-91
2023/03/05 04:26:04;;;;;;;0.05;0.05;;;;;;;0.93;100.00;99823.78;6154362;23;20005;-91
2023/03/05 04:28:30;;;;;;;0.98;0.85;;;;;;;0.86;100.00;99818.28;6181494;23;20017;-85
2023/03/05 04:30:55;;;;;;;0.10;0.10;;;;;;;0.83;100.00;99819.03;6180946;23;20309;-86
2023/03/05 04:33:21;;;;;;;0.85;0.77;;;;;;;0.80;100.00;99811.59;6180840;23;20020;-86
2023/03/05 04:35:46;;;;;;;0.10;0.10;;;;;;;0.78;100.00;99813.91;6154226;23;20009;-86
2023/03/05 04:38:12;;;;;;;0.00;0.00;;;;;;;0.77;100.00;99820.53;6154236;23;20017;-86
2023/03/05 04:40:38;;;;;;;1.55;1.33;;;;;;;0.73;100.00;99816.97;6181181;23;20431;-86
2023/03/05 04:43:04;;;;;;;0.00;0.00;;;;;;;0.64;100.00;99816.53;6181117;23;20009;-85
2023/03/05 04:45:30;;;;;;;0.30;0.25;;;;;;;0.50;100.00;99821.84;6130769;23;20007;-91
2023/03/05 04:47:55;;;;;;;2.63;2.10;;;;;;;0.41;100.00;99813.16;6154437;23;20013;-86
2023/03/05 04:50:21;;;;;;;0.10;0.10;;;;;;;0.47;100.00;99822.59;6154439;23;20005;-86
2023/03/05 04:52:46;;;;;;;0.80;0.80;;;;;;;0.42;100.00;99817.47;6180590;23;20021;-86
2023/03/05 04:55:13;;;;;;;0.30;0.30;;;;;;;0.43;100.00;99817.09;6181171;23;20443;-85
2023/03/05 04:57:39;;;;;;;0.10;0.10;;;;;;;0.42;100.00;99820.19;6180683;23;20009;-85
2023/03/05 05:00:06;;;;;;;0.75;0.75;;;;;;;0.32;100.00;99809.97;6180622;23;20521;-86
2023/03/05 05:02:32;;;;;;;0.10;0.10;;;;;;;0.33;100.00;99817.75;6180129;23;20016;-85
2023/03/05 05:04:58;;;;;;;0.57;0.57;;;;;;;0.32;100.00;99823.59;6169674;23;20017;-90
2023/03/05 05:07:23;;;;;;;0.20;0.20;;;;;;;0.28;100.00;99820.84;6183066;23;20428;-92
2023/03/05 05:09:49;;;;;;;0.52;0.52;;;;;;;0.23;100.00;99820.38;6211532;23;20017;-91
2023/03/05 05:12:15;;;;;;;0.00;0.00;;;;;;;0.21;100.00;99822.69;6159279;23;20067;-91
2023/03/05 05:14:40;;;;;;;0.70;0.70;;;;;;;0.14;100.00;99825.34;6211528;23;20019;-91
2023/03/05 05:17:06;;;;;;;0.20;0.20;;;;;;;0.06;100.00;99812.78;6210402;23;20011;-86
2023/03/05 05:19:32;;;;;;;0.22;0.22;;;;;;;0.06;100.00;99819.00;6210546;23;20017;-85
2023/03/05 05:21:58;;;;;;;2.40;2.17;;;;;;;0.03;100.00;99825.22;6182781;23;20017;-86
2023/03/05 05:24:23;;;;;;;0.17;0.17;;;;;;;-0.04;100.00;99828.63;6184145;23;20342;-85
2023/03/05 05:26:50;;;;;;;0.63;0.63;;;;;;;-0.08;100.00;99827.78;6210995;23;20015;-86
2023/03/05 05:29:16;;;;;;;1.08;0.90;;;;;;;-0.15;100.00;99825.00;6182465;23;20040;-85
2023/03/05 05:31:41;;;;;;;0.20;0.20;;;;;;;-0.22;100.00;99824.91;6209686;23;20009;-86
2023/03/05 05:34:07;;;;;;;0.30;0.30;;;;;;;-0.21;100.00;99829.22;6183215;23;20015;-91
2023/03/05 05:36:32;;;;;;;0.10;0.10;;;;;;;-0.33;100.00;99840.34;6182200;23;20470;-92
2023/03/05 05:38:58;;;;;;;0.75;0.75;;;;;;;-0.47;100.00;99834.69;6210258;23;20012;-91
2023/03/05 05:41:23;;;;;;;0.75;0.73;;;;;;;-0.40;100.00;99840.22;6210547;23;20084;-90
2023/03/05 05:43:49;;;;;;;0.20;0.20;;;;;;;-0.43;100.00;99832.00;6210969;23;20084;-90
2023/03/05 05:46:17;;;;;;;0.10;0.10;;;;;;;-0.40;100.00;99842.19;6210003;23;20463;-85
2023/03/05 05:48:44;;;;;;;0.65;0.65;;;;;;;-0.40;100.00;99842.19;6183995;23;20304;-85
2023/03/05 05:51:12;;;;;;;0.63;0.63;;;;;;;-0.33;100.00;99840.34;6183997;23;20025;-85
2023/03/05 05:53:38;;;;;;;0.15;0.15;;;;;;;-0.35;100.00;99837.19;6210031;23;20001;-85
2023/03/05 05:56:05;;;;;;;0.57;0.57;;;;;;;-0.25;100.00;99839.28;6183745;23;20084;-85
2023/03/05 05:58:31;;;;;;;0.45;0.45;;;;;;;-0.24;100.00;99843.56;6182435;23;20063;-85
2023/03/05 06:00:56;;;;;;;0.40;0.40;;;;;;;-0.24;100.00;99827.19;6181840;23;20016;-84
2023/03/05 06:03:22;;;;;;;0.20;0.20;;;;;;;-0.21;100.00;99831.16;6182115;23;20021;-92
2023/03/05 06:05:48;;;;;;;0.20;0.20;;;;;;;-0.08;100.00;99835.97;6183912;23;20470;-90
2023/03/05 06:08:13;;;;;;;0.63;0.63;;;;;;;-0.01;100.00;99841.53;6178978;23;20084;-90
2023/03/05 06:10:39;;;;;;;0.52;0.38;;;;;;;0.05;100.00;99841.19;6128782;23;20385;-90
2023/03/05 06:13:05;;;;;;;1.83;1.05;;;;;;;0.07;100.00;99838.91;6179133;23;20009;-91
2023/03/05 06:15:30;;;;;;;0.73;0.52;;;;;;;0.17;100.00;99830.81;6153895;23;20094;-92
2023/03/05 06:17:58;;;;;;;0.28;0.28;;;;;;;0.20;100.00;99848.41;6178843;23;20027;-91
2023/03/05 06:20:23;;;;;;;1.08;0.95;;;;;;;0.28;100.00;99839.16;6151617;23;20071;-91
2023/03/05 06:22:49;;;;;;;1.70;1.58;;;;;;;0.26;100.00;99839.50;6178607;23;20383;-85
2023/03/05 06:25:14;;;;;;;0.73;0.68;;;;;;;0.30;100.00;99839.53;6151137;23;20564;-86
2023/03/05 06:27:40;;;;;;;1.55;1.48;;;;;;;0.30;100.00;99845.78;6150749;23;20064;-85
2023/03/05 06:30:06;;;;;;;0.10;0.10;;;;;;;0.36;100.00;99854.44;6176638;23;20020;-84
2023/03/05 06:32:32;;;;;;;0.80;0.63;;;;;;;0.44;100.00;99845.19;6176618;23;20021;-84
2023/03/05 06:35:00;;;;;;;3.78;1.67;;;;;;;0.62;100.00;99851.59;6177109;23;20005;-86
2023/03/05 06:37:26;;;;;;;0.40;0.40;;;;;;;0.75;100.00;99841.97;6177332;23;20139;-86
2023/03/05 06:39:51;;;;;;;0.70;0.70;;;;;;;0.81;100.00;99843.19;6176767;23;20095;-85
2023/03/05 06:42:18;;;;;;;0.60;0.60;;;;;;;0.93;100.00;99834.72;6153646;23;20447;-86
2023/03/05 06:44:46;;;;;;;0.30;0.30;;;;;;;0.89;100.00;99838.59;6104708;23;20021;-84
2023/03/05 06:47:13;;;;;;;0.30;0.30;;;;;;;1.03;100.00;99837.91;6178988;23;20067;-86
2023/03/05 06:49:39;;;;;;;1.85;1.75;;;;;;;1.10;100.00;99843.44;6153466;23;20045;-86
2023/03/05 06:52:06;;;;;;;1.95;0.73;;;;;;;1.16;100.00;99847.41;6153140;23;20005;-86
2023/03/05 06:54:31;;;;;;;1.50;0.55;;;;;;;1.30;100.00;99842.81;6152791;23;20074;-86
2023/03/05 06:56:57;;;;;;;1.15;1.15;;;;;;;1.57;100.00;99845.34;6179247;23;20013;-86
2023/03/05 06:59:23;;;;;;;0.80;0.80;;;;;;;1.85;100.00;99834.59;6177608;23;20459;-86
2023/03/05 07:01:48;;;;;;;0.98;0.98;;;;;;;2.02;100.00;99833.88;6178135;23;20024;-86
2023/03/05 07:04:16;;;;;;;1.02;0.73;;;;;;;2.28;100.00;99836.31;6180363;23;20017;-85
2023/03/05 07:06:44;;;;;;;0.22;0.22;;;;;;;2.57;100.00;99841.88;6153299;23;20016;-85
2023/03/05 07:09:14;;;;;;;1.70;1.60;;;;;;;2.80;100.00;99845.81;6152357;23;20013;-85
2023/03/05 07:11:39;;;;;;;1.85;0.65;;;;;;;2.97;100.00;99841.53;6177633;23;20021;-85
2023/03/05 07:14:05;;;;;;;0.45;0.45;;;;;;;3.10;100.00;99847.44;6179197;23;20009;-86
2023/03/05 07:16:32;;;;;;;2.17;1.95;;;;;;;3.28;100.00;99842.72;6154027;23;20020;-90
2023/03/05 07:18:59;;;;;;;0.45;0.45;;;;;;;3.43;100.00;99844.28;6154008;23;20012;-92
2023/03/05 07:21:27;;;;;;;0.90;0.68;;;;;;;3.69;100.00;99840.31;6150839;23;20021;-92
2023/03/05 07:23:57;;;;;;;0.68;0.68;;;;;;;3.91;99.06;99835.56;6176398;23;20334;-92
2023/03/05 07:26:23;;;;;;;4.72;3.17;;;;;;;4.09;96.24;99834.31;6179641;23;20343;-91
2023/03/05 07:28:49;;;;;;;0.88;0.70;;;;;;;4.09;95.69;99825.28;6127867;23;20020;-86
2023/03/05 07:31:30;;;;;;;0.57;0.57;;;;;;;4.19;96.26;99840.94;6179439;23;20012;-86
2023/03/05 07:33:57;;;;;;;0.85;0.85;;;;;;;4.35;95.46;99838.53;6153288;23;20024;-86
2023/03/05 07:36:24;;;;;;;1.42;1.17;;;;;;;4.54;92.91;99835.28;6149166;23;20012;-86
2023/03/05 07:38:49;;;;;;;0.80;0.80;;;;;;;4.73;91.46;99836.75;6152469;23;20024;-86
2023/03/05 07:41:20;;;;;;;0.63;0.63;;;;;;;4.86;92.22;99837.03;6127354;23;20005;-86
2023/03/05 07:43:48;;;;;;;1.52;1.42;;;;;;;5.01;87.07;99836.56;6128642;23;20017;-87
2023/03/05 07:46:15;;;;;;;1.08;1.08;;;;;;;5.24;85.75;99827.72;6129032;23;20443;-86
2023/03/05 07:48:41;;;;;;;1.92;1.80;;;;;;;5.33;85.56;99819.78;6153808;23;20060;-86
2023/03/05 07:51:09;;;;;;;1.45;1.27;;;;;;;5.54;84.52;99830.56;6153636;23;20013;-87
2023/03/05 07:53:35;;;;;;;0.73;0.60;;;;;;;5.42;83.10;99819.31;6153856;23;20005;-86
2023/03/05 07:56:01;;;;;;;1.50;0.85;;;;;;;5.37;84.98;99820.53;6180016;23;20024;-85
2023/03/05 07:58:26;;;;;;;0.85;0.85;;;;;;;5.18;86.51;99820.31;6180226;23;20315;-85
2023/03/05 08:00:52;;;;;;;1.73;1.30;;;;;;;5.20;86.63;99829.72;6154044;23;20020;-86
2023/03/05 08:03:18;;;;;;;0.95;0.88;;;;;;;5.19;86.48;99822.66;6153276;23;20012;-86
2023/03/05 08:05:44;;;;;;;2.10;1.45;;;;;;;5.20;87.38;99826.97;6180408;23;20013;-86
2023/03/05 08:08:09;;;;;;;1.48;1.38;;;;;;;5.19;86.71;99825.41;6179622;23;20019;-86
2023/03/05 08:10:35;;;;;;;1.42;1.38;;;;;;;5.15;87.59;99819.16;6180452;23;20343;-86
2023/03/05 08:13:02;;;;;;;1.55;1.42;;;;;;;5.24;88.17;99815.94;6152246;23;20084;-86
2023/03/05 08:15:27;;;;;;;0.47;0.47;;;;;;;5.32;87.82;99828.44;6154505;23;20017;-92
2023/03/05 08:17:53;;;;;;;0.10;0.10;;;;;;;5.15;86.73;99813.66;6180438;23;20176;-92
2023/03/05 08:20:18;;;;;;;0.98;0.98;;;;;;;5.14;87.43;99823.06;6153987;23;20017;-92
2023/03/05 08:22:45;;;;;;;1.50;1.40;;;;;;;5.09;88.23;99816.06;6180264;23;20017;-90
2023/03/05 08:25:11;;;;;;;2.05;1.95;;;;;;;5.08;89.02;99825.50;6180439;23;20515;-91
2023/03/05 08:27:44;;;;;;;1.30;1.08;;;;;;;5.22;89.69;99821.81;6180519;23;20075;-91
2023/03/05 08:30:12;;;;;;;1.38;1.27;;;;;;;5.46;89.40;99823.56;6154023;23;20107;-93
2023/03/05 08:32:38;;;;;;;0.30;0.30;;;;;;;5.65;88.38;99819.47;6180734;23;20005;-90
2023/03/05 08:35:08;;;;;;;2.35;2.15;;;;;;;5.74;85.26;99808.78;6154055;23;20152;-93
2023/03/05 08:37:33;;;;;;;1.40;0.88;;;;;;;5.88;85.26;99818.84;6180345;23;20016;-93
2023/03/05 08:39:59;;;;;;;2.80;2.08;;;;;;;5.95;85.01;99808.53;6153923;23;20323;-91
2023/03/05 08:42:31;;;;;;;1.50;1.02;;;;;;;5.93;83.84;99812.91;6180296;23;20013;-91
2023/03/05 08:44:56;;;;;;;2.55;2.35;;;;;;;5.90;82.47;99810.97;6152364;23;20029;-91
2023/03/05 08:47:24;;;;;;;1.10;1.05;;;;;;;5.79;81.85;99819.31;6128601;23;20021;-90
2023/03/05 08:49:54;;;;;;;3.40;2.08;;;;;;;5.73;83.74;99817.44;6154460;23;20009;-91
2023/03/05 08:52:20;;;;;;;1.77;1.67;;;;;;;5.66;83.40;99803.75;6153989;23;20013;-90
2023/03/05 08:54:46;;;;;;;1.02;0.95;;;;;;;5.66;83.81;99806.50;6154621;23;20005;-91
2023/03/05 08:57:12;;;;;;;1.63;1.52;;;;;;;5.75;85.73;99801.28;6153365;23;20017;-91
2023/03/05 08:59:40;;;;;;;0.45;0.45;;;;;;;5.84;86.57;99798.81;6180387;23;20424;-92
2023/03/05 09:02:06;;;;;;;1.13;1.08;;;;;;;5.87;85.36;99803.53;6179535;23;20048;-86
2023/03/05 09:04:31;;;;;;;2.15;1.65;;;;;;;5.84;86.40;99793.31;6162149;23;20027;-85
2023/03/05 09:06:57;;;;;;;0.80;0.80;;;;;;;5.88;86.85;99800.38;6210092;23;20458;-84
2023/03/05 09:09:23;;;;;;;2.70;2.13;;;;;;;5.79;86.94;99786.28;6209294;23;20059;-86
2023/03/05 09:11:50;;;;;;;4.57;1.90;;;;;;;5.85;86.68;99795.66;6210965;23;20020;-85
2023/03/05 09:14:16;;;;;;;2.28;1.88;;;;;;;5.72;88.10;99797.38;6210412;23;20012;-85
2023/03/05 09:16:42;;;;;;;1.75;1.65;;;;;;;5.79;90.19;99782.75;6207673;23;20055;-85
2023/03/05 09:19:09;;;;;;;0.50;0.50;;;;;;;5.94;90.04;99787.72;6207987;23;20023;-85
2023/03/05 09:21:35;;;;;;;1.60;1.05;;;;;;;5.99;89.05;99778.22;6180488;23;20407;-89
2023/03/05 09:24:02;;;;;;;2.22;1.15;;;;;;;5.93;87.43;99772.41;6180847;23;20071;-92
2023/03/05 09:26:27;;;;;;;1.60;0.80;;;;;;;6.07;88.02;99785.19;6181771;23;20028;-91
2023/03/05 09:28:53;;;;;;;1.30;1.08;;;;;;;6.09;85.39;99771.81;6208850;23;20518;-91
2023/03/05 09:31:18;;;;;;;1.08;0.90;;;;;;;6.07;86.59;99776.94;6181060;23;20068;-91
2023/03/05 09:33:44;;;;;;;0.43;0.43;;;;;;;6.09;85.56;99782.81;6181596;23;20012;-90
2023/03/05 09:36:21;;;;;;;0.68;0.68;;;;;;;6.01;85.49;99762.06;6180233;23;20328;-91
2023/03/05 09:38:47;;;;;;;1.95;1.85;;;;;;;5.93;83.36;99774.38;6181330;23;20017;-85
2023/03/05 09:41:25;;;;;;;0.40;0.40;;;;;;;5.91;84.75;99771.22;6156151;23;20098;-85
2023/03/05 09:43:54;;;;;;;1.13;1.13;;;;;;;5.90;84.91;99769.69;6207959;23;20023;-85
2023/03/05 09:46:48;;;;;;;1.17;0.52;;;;;;;5.99;84.88;99769.94;6207166;23;20020;-85
2023/03/05 09:49:20;;;;;;;1.85;1.15;;;;;;;5.95;87.39;99760.94;6181877;23;20017;-85
2023/03/05 09:51:50;;;;;;;3.67;1.55;;;;;;;6.04;85.87;99772.25;6208280;23;20028;-85
2023/03/05 09:54:19;;;;;;;1.25;1.05;;;;;;;6.07;85.15;99763.16;6180849;23;20009;-85
2023/03/05 09:56:55;;;;;;;1.58;1.15;;;;;;;6.12;83.57;99751.69;6154326;23;20531;-85
2023/03/05 09:59:32;;;;;;;0.82;0.82;;;;;;;6.26;83.67;99753.47;6134135;23;20043;-85
2023/03/05 10:02:22;;;;;;;0.85;0.85;;;;;;;6.45;84.20;99764.63;6181592;23;20020;-86
2023/03/05 10:04:52;;;;;;;1.95;1.33;;;;;;;6.53;79.86;99763.31;6158295;23;20021;-85
2023/03/05 10:07:33;;;;;;;1.35;0.93;;;;;;;6.69;75.56;99764.66;6210113;23;20016;-91
2023/03/05 10:10:13;;;;;;;2.15;2.05;;;;;;;6.60;77.80;99753.38;6181685;23;20012;-87
2023/03/05 10:13:02;;;;;;;0.55;0.55;;;;;;;6.72;80.25;99752.78;6181146;23;20016;-85
2023/03/05 10:15:43;;;;;;;1.75;1.65;;;;;;;6.76;80.79;99750.75;6182129;23;20507;-86
2023/03/05 10:18:23;;;;;;;1.13;0.90;;;;;;;6.86;81.02;99752.56;6182396;23;20208;-86
2023/03/05 10:21:13;;;;;;;1.48;1.38;;;;;;;6.81;78.50;99744.78;6208766;23;20104;-86
2023/03/05 10:23:56;;;;;;;1.85;0.82;;;;;;;6.77;76.41;99739.31;6183524;23;20016;-86
2023/03/05 10:26:43;;;;;;;1.70;0.80;;;;;;;6.71;77.17;99752.03;6183386;23;20019;-86
2023/03/05 10:29:27;;;;;;;1.40;1.30;;;;;;;6.63;77.83;99749.81;6183506;23;20013;-86
2023/03/05 10:32:16;;;;;;;;;;;;;;;6.62;78.44;99748.25;6210322;23;20105;-86
2023/03/05 10:35:14;;;;;;;1.90;1.70;;;;;;;6.56;78.43;99745.94;6198012;23;20326;-86
2023/03/05 10:37:47;;;;;;;1.02;0.98;;;;;;;6.55;78.70;99744.38;6180119;23;20028;-86
2023/03/05 10:40:31;;;;;;;2.35;1.95;;;;;;;6.57;77.95;99736.50;6210415;23;20046;-86
2023/03/05 10:43:23;;;;;;;2.08;1.13;;;;;;;6.52;79.63;99739.72;6161576;23;20040;-84
2023/03/05 10:45:53;;;;;;;2.17;1.30;;;;;;;6.50;77.95;99730.31;6208976;23;20013;-85
2023/03/05 10:48:28;;;;;;;2.58;1.77;;;;;;;6.49;78.94;99729.53;6185110;23;20086;-84
2023/03/05 10:51:01;;;;;;;0.95;0.93;;;;;;;6.66;77.01;99732.44;6211994;23;20020;-84
2023/03/05 10:53:31;;;;;;;1.73;1.65;;;;;;;6.83;76.27;99726.63;6211669;23;20048;-85
2023/03/05 10:56:04;;;;;;;1.08;0.98;;;;;;;7.06;72.90;99722.31;6185261;23;20012;-90
2023/03/05 10:58:30;;;;;;;1.25;1.17;;;;;;;7.20;72.49;99714.53;6211369;23;20012;-91
2023/03/05 11:01:00;;;;;;;1.08;0.98;;;;;;;7.69;71.53;99714.78;6212005;23;20083;-90
2023/03/05 11:03:48;;;;;;;1.10;1.10;;;;;;;8.23;64.70;99699.44;6211272;23;20020;-90
2023/03/05 11:06:15;;;;;;;0.73;0.73;;;;;;;8.52;61.71;99693.28;6154527;23;20021;-90
2023/03/05 11:08:40;;;;;;;1.05;0.68;;;;;;;8.72;61.93;99682.91;6155125;23;20627;-91
2023/03/05 11:11:16;;;;;;;2.08;1.95;;;;;;;9.18;60.94;99679.72;6155459;23;20100;-90
2023/03/05 11:13:59;;;;;;;0.85;0.85;;;;;;;9.44;55.78;99674.28;6155367;23;20021;-92
2023/03/05 11:16:28;;;;;;;1.38;1.27;;;;;;;9.39;53.16;99667.28;6154471;23;20017;-91
2023/03/05 11:19:18;;;;;;;0.82;0.82;;;;;;;9.73;52.61;99673.06;6129486;23;20008;-91
2023/03/05 11:21:46;;;;;;;2.20;1.45;;;;;;;9.93;52.71;99659.00;6125706;23;20028;-90
2023/03/05 11:24:17;;;;;;;2.83;0.82;;;;;;;9.97;51.36;99662.44;6155323;23;20013;-90
2023/03/05 11:26:48;;;;;;;0.80;0.60;;;;;;;10.18;52.21;99650.75;6130141;23;20024;-91
2023/03/05 11:29:25;;;;;;;2.22;1.67;;;;;;;10.24;49.64;99648.19;6129631;23;20041;-90
2023/03/05 11:31:52;;;;;;;2.10;1.90;;;;;;;9.83;49.98;99643.47;6154183;23;20009;-91
2023/03/05 11:34:17;;;;;;;0.43;0.43;;;;;;;9.86;51.07;99645.38;6129633;23;20025;-84
2023/03/05 11:36:52;;;;;;;1.15;0.90;;;;;;;10.03;50.53;99641.28;6179992;23;20075;-85
2023/03/05 11:39:21;;;;;;;2.20;2.10;;;;;;;9.93;49.84;99634.06;6179850;23;20091;-86
2023/03/05 11:41:52;;;;;;;2.35;2.03;;;;;;;9.75;50.49;99628.28;6180353;23;20009;-86